createdAt,value
2022-08-23T00:01:36.838Z,10.25
2022-08-23T00:04:08.261Z,8.68
2022-08-23T00:06:36.050Z,7.25
2022-08-23T00:09:03.714Z,6.32
2022-08-23T00:11:44.528Z,11.18
2022-08-23T00:14:26.053Z,9.05
2022-08-23T00:16:53.838Z,8.25
2022-08-23T00:19:22.941Z,11.40
2022-08-23T00:21:52.330Z,13.63
2022-08-23T00:24:20.028Z,8.05
2022-08-23T00:27:07.828Z,8.45
2022-08-23T00:32:02.434Z,6.15
2022-08-23T00:34:29.591Z,10.13
2022-08-23T00:36:56.962Z,8.70
2022-08-23T00:39:23.963Z,9.93
2022-08-23T00:41:51.503Z,9.68
2022-08-23T00:44:46.621Z,8.65
2022-08-23T00:47:33.732Z,8.32
2022-08-23T00:50:24.208Z,8.93
2022-08-23T00:53:12.476Z,12.00
2022-08-23T00:55:41.813Z,8.68
2022-08-23T00:58:09.837Z,11.65
2022-08-23T01:00:36.821Z,8.20
2022-08-23T01:03:07.852Z,8.40
2022-08-23T01:06:08.131Z,7.35
2022-08-23T01:08:37.159Z,9.18
2022-08-23T01:11:27.331Z,9.82
2022-08-23T01:14:07.442Z,8.88
2022-08-23T01:16:54.234Z,10.52
2022-08-23T01:19:41.686Z,8.80
2022-08-23T01:22:40.864Z,7.10
2022-08-23T01:25:12.475Z,9.05
2022-08-23T01:27:40.391Z,7.07
2022-08-23T01:30:11.900Z,11.75
2022-08-23T01:32:48.070Z,6.53
2022-08-23T01:35:16.973Z,8.20
2022-08-23T01:37:44.781Z,8.45
2022-08-23T01:40:12.700Z,9.55
2022-08-23T01:42:41.937Z,9.63
2022-08-23T01:45:14.063Z,8.48
2022-08-23T01:47:41.702Z,11.27
2022-08-23T01:50:11.555Z,9.88
2022-08-23T01:52:47.041Z,8.18
2022-08-23T01:55:15.143Z,8.63
2022-08-23T01:57:45.487Z,9.68
2022-08-23T02:00:17.891Z,8.85
2022-08-23T02:02:47.341Z,8.25
2022-08-23T02:05:14.746Z,8.75
2022-08-23T02:07:46.877Z,6.53
2022-08-23T02:10:14.413Z,9.55
2022-08-23T02:12:42.002Z,6.72
2022-08-23T02:15:09.500Z,11.52
2022-08-23T02:17:37.114Z,6.25
2022-08-23T02:20:05.874Z,9.65
2022-08-23T02:22:33.642Z,9.60
2022-08-23T02:25:01.168Z,6.88
2022-08-23T02:27:28.240Z,9.82
2022-08-23T02:29:55.481Z,11.85
2022-08-23T02:32:23.204Z,11.52
2022-08-23T02:35:05.273Z,12.32
2022-08-23T02:37:33.745Z,7.32
2022-08-23T02:40:00.842Z,12.00
2022-08-23T02:42:27.963Z,10.90
2022-08-23T02:44:55.637Z,5.65
2022-08-23T02:47:23.818Z,8.73
2022-08-23T02:49:51.982Z,10.02
2022-08-23T02:52:19.043Z,8.25
2022-08-23T02:54:46.032Z,11.82
2022-08-23T02:57:13.364Z,9.10
2022-08-23T02:59:40.405Z,9.43
2022-08-23T03:02:07.434Z,6.55
2022-08-23T03:04:34.538Z,13.35
2022-08-23T03:07:01.676Z,12.50
2022-08-23T03:09:39.999Z,8.15
2022-08-23T03:12:07.840Z,8.40
2022-08-23T03:14:35.449Z,8.30
2022-08-23T03:17:07.291Z,7.70
2022-08-23T03:19:34.710Z,8.18
2022-08-23T03:22:01.994Z,11.02
2022-08-23T03:24:29.964Z,9.35
2022-08-23T03:26:56.976Z,10.77
2022-08-23T03:29:23.970Z,11.02
2022-08-23T03:31:51.903Z,9.13
2022-08-23T03:34:21.321Z,11.45
2022-08-23T03:36:48.342Z,9.38
2022-08-23T03:39:15.727Z,8.93
2022-08-23T03:41:42.872Z,7.25
2022-08-23T03:44:10.003Z,13.10
2022-08-23T03:46:37.550Z,6.93
2022-08-23T03:49:05.225Z,10.25
2022-08-23T03:51:34.549Z,13.55
2022-08-23T03:54:02.485Z,9.85
2022-08-23T03:56:32.393Z,8.45
2022-08-23T03:59:04.086Z,9.50
2022-08-23T04:01:31.153Z,9.50
2022-08-23T04:04:01.037Z,10.05
2022-08-23T04:06:29.077Z,8.65
2022-08-23T04:08:56.565Z,10.10
2022-08-23T04:11:25.769Z,11.63
2022-08-23T04:13:52.886Z,11.52
2022-08-23T04:16:20.364Z,9.13
2022-08-23T04:18:47.924Z,12.50
2022-08-23T04:21:22.633Z,8.30
2022-08-23T04:23:49.948Z,9.63
2022-08-23T04:26:17.130Z,10.82
2022-08-23T04:28:44.116Z,9.77
2022-08-23T04:31:11.364Z,9.27
2022-08-23T04:33:40.184Z,9.20
2022-08-23T04:36:08.038Z,9.05
2022-08-23T04:38:35.368Z,14.50
2022-08-23T04:41:21.835Z,10.75
2022-08-23T04:43:49.065Z,10.38
2022-08-23T04:46:16.792Z,8.75
2022-08-23T04:48:46.063Z,12.68
2022-08-23T04:51:13.712Z,12.93
2022-08-23T04:53:41.381Z,14.77
2022-08-23T04:56:09.377Z,16.08
2022-08-23T04:58:37.454Z,10.63
2022-08-23T05:01:16.342Z,14.52
2022-08-23T05:03:43.688Z,18.33
2022-08-23T05:06:11.005Z,16.23
2022-08-23T05:08:38.167Z,16.58
2022-08-23T05:11:07.693Z,15.90
2022-08-23T05:13:36.725Z,12.65
2022-08-23T05:16:05.208Z,10.85
2022-08-23T05:18:33.672Z,16.92
2022-08-23T05:21:01.326Z,14.38
2022-08-23T05:23:31.829Z,17.58
2022-08-23T05:26:01.069Z,20.88
2022-08-23T05:28:31.295Z,14.38
2022-08-23T05:31:03.661Z,18.75
2022-08-23T05:33:32.330Z,15.07
2022-08-23T05:36:00.331Z,16.48
2022-08-23T05:38:27.444Z,17.35
2022-08-23T05:40:59.900Z,17.42
2022-08-23T05:43:27.209Z,16.35
2022-08-23T05:46:12.808Z,20.27
2022-08-23T05:48:47.205Z,16.95
2022-08-23T05:51:19.037Z,16.65
2022-08-23T05:53:47.743Z,17.27
2022-08-23T05:56:17.771Z,16.75
2022-08-23T05:58:45.927Z,16.15
2022-08-23T06:01:15.095Z,17.73
2022-08-23T06:03:43.368Z,17.73
2022-08-23T06:06:11.491Z,20.15
2022-08-23T06:08:40.243Z,24.83
2022-08-23T06:11:11.000Z,20.65
2022-08-23T06:13:44.526Z,23.52
2022-08-23T06:16:15.031Z,25.40
2022-08-23T06:18:43.367Z,18.85
2022-08-23T06:21:12.602Z,18.38
2022-08-23T06:23:41.903Z,18.27
2022-08-23T06:26:16.427Z,23.48
2022-08-23T06:28:51.142Z,23.58
2022-08-23T06:31:38.155Z,23.73
2022-08-23T06:34:05.285Z,21.48
2022-08-23T06:36:32.428Z,23.15
2022-08-23T06:38:59.918Z,21.55
2022-08-23T06:41:27.344Z,23.45
2022-08-23T06:43:55.431Z,29.50
2022-08-23T06:46:29.380Z,23.05
2022-08-23T06:48:58.157Z,20.55
2022-08-23T06:51:29.410Z,23.38
2022-08-23T06:53:58.784Z,20.23
2022-08-23T06:56:30.555Z,28.30
2022-08-23T06:58:58.126Z,24.10
2022-08-23T07:01:47.623Z,27.98
2022-08-23T07:04:35.269Z,28.67
2022-08-23T07:07:03.311Z,31.95
2022-08-23T07:09:32.081Z,29.65
2022-08-23T07:12:01.023Z,18.80
2022-08-23T07:14:28.498Z,20.33
2022-08-23T07:17:01.399Z,21.55
2022-08-23T07:19:31.684Z,28.02
2022-08-23T07:22:00.571Z,22.58
2022-08-23T07:24:33.034Z,22.67
2022-08-23T07:27:01.632Z,18.00
2022-08-23T07:29:30.227Z,21.70
2022-08-23T07:31:58.092Z,18.48
2022-08-23T07:34:26.399Z,19.88
2022-08-23T07:36:54.368Z,22.50
2022-08-23T07:39:22.923Z,26.27
2022-08-23T07:41:52.895Z,15.77
2022-08-23T07:44:20.297Z,15.20
2022-08-23T07:46:50.650Z,12.77
2022-08-23T07:49:18.462Z,18.25
2022-08-23T07:51:49.139Z,18.98
2022-08-23T07:54:16.970Z,20.92
2022-08-23T07:56:44.524Z,16.35
2022-08-23T07:59:12.003Z,18.98
2022-08-23T08:01:41.467Z,15.10
2022-08-23T08:04:08.572Z,12.50
2022-08-23T08:06:41.370Z,16.40
2022-08-23T08:09:10.671Z,11.98
2022-08-23T08:11:38.055Z,14.70
2022-08-23T08:14:07.872Z,13.00
2022-08-23T08:16:44.424Z,11.75
2022-08-23T08:19:13.542Z,12.75
2022-08-23T08:21:41.978Z,17.50
2022-08-23T08:24:13.102Z,17.63
2022-08-23T08:26:42.052Z,15.60
2022-08-23T08:29:12.148Z,7.20
2022-08-23T08:31:41.115Z,12.23
2022-08-23T08:34:08.957Z,14.05
2022-08-23T08:36:41.460Z,12.25
2022-08-23T08:39:12.164Z,11.73
2022-08-23T08:41:48.917Z,13.10
2022-08-23T08:44:26.059Z,16.63
2022-08-23T08:46:57.363Z,10.52
2022-08-23T08:49:45.441Z,8.55
2022-08-23T08:52:23.541Z,9.73
2022-08-23T08:54:56.175Z,7.82
2022-08-23T08:57:27.643Z,8.90
2022-08-23T09:00:25.494Z,10.73
2022-08-23T09:02:52.882Z,3.08
2022-08-23T09:05:27.372Z,6.05
2022-08-23T09:08:32.040Z,3.55
2022-08-23T09:11:06.500Z,3.37
2022-08-23T09:13:36.724Z,7.07
2022-08-23T09:16:35.924Z,4.82
2022-08-23T09:19:04.134Z,7.85
2022-08-23T09:21:44.732Z,4.38
2022-08-23T09:24:11.819Z,5.38
2022-08-23T09:26:39.200Z,6.18
2022-08-23T09:29:23.963Z,1.70
2022-08-23T09:31:54.189Z,4.78
2022-08-23T09:34:42.416Z,13.25
2022-08-23T09:37:18.512Z,111.47
2022-08-23T09:39:53.892Z,6.37
2022-08-23T09:42:39.603Z,4.18
2022-08-23T09:45:26.534Z,5.65
2022-08-23T09:47:55.249Z,41.63
2022-08-23T09:50:36.585Z,17.33
2022-08-23T09:53:09.006Z,5.68
2022-08-23T09:55:47.687Z,5.35
2022-08-23T09:58:36.420Z,3.20
2022-08-23T10:01:14.484Z,6.25
2022-08-23T10:03:42.864Z,13.02
2022-08-23T10:06:12.569Z,5.28
2022-08-23T10:08:53.485Z,4.20
2022-08-23T10:11:30.477Z,4.45
2022-08-23T10:13:58.133Z,5.70
2022-08-23T10:16:41.538Z,4.18
2022-08-23T10:19:47.808Z,4.32
2022-08-23T10:22:22.900Z,4.93
2022-08-23T10:25:06.098Z,6.82
2022-08-23T10:28:36.887Z,2.90
2022-08-23T10:31:31.408Z,2.92
2022-08-23T10:34:10.399Z,3.05
2022-08-23T10:36:58.564Z,3.78
2022-08-23T10:39:30.464Z,3.80
2022-08-23T10:42:13.965Z,3.75
2022-08-23T10:45:04.256Z,4.57
2022-08-23T10:47:48.069Z,2.03
2022-08-23T10:50:20.186Z,2.55
2022-08-23T10:52:56.969Z,4.30
2022-08-23T10:55:55.021Z,5.68
2022-08-23T10:58:26.279Z,3.35
2022-08-23T11:00:57.937Z,9.52
2022-08-23T11:03:48.034Z,3.40
2022-08-23T11:06:30.415Z,3.75
2022-08-23T11:09:30.704Z,5.22
2022-08-23T11:12:05.634Z,4.20
2022-08-23T11:14:38.777Z,3.92
2022-08-23T11:17:09.320Z,8.25
2022-08-23T11:19:56.228Z,8.95
2022-08-23T11:22:58.156Z,9.43
2022-08-23T11:25:25.076Z,5.20
2022-08-23T11:28:23.994Z,3.65
2022-08-23T11:30:58.275Z,5.10
2022-08-23T11:33:46.792Z,10.05
2022-08-23T11:36:24.819Z,8.13
2022-08-23T11:38:51.813Z,8.90
2022-08-23T11:41:26.018Z,5.60
2022-08-23T11:43:56.073Z,2.83
2022-08-23T11:46:26.231Z,4.20
2022-08-23T11:49:17.202Z,1.35
2022-08-23T11:52:11.302Z,3.55
2022-08-23T11:55:08.480Z,2.35
2022-08-23T11:58:16.830Z,3.13
2022-08-23T12:01:08.757Z,4.55
2022-08-23T12:03:57.080Z,1.50
2022-08-23T12:06:50.881Z,3.22
2022-08-23T12:09:21.240Z,2.00
2022-08-23T12:11:57.324Z,3.13
2022-08-23T12:14:45.573Z,1.40
2022-08-23T12:17:12.492Z,2.65
2022-08-23T12:19:43.881Z,1.58
2022-08-23T12:22:20.025Z,2.83
2022-08-23T12:24:53.867Z,2.35
2022-08-23T12:27:23.564Z,2.20
2022-08-23T12:29:53.631Z,1.73
2022-08-23T12:32:54.561Z,1.73
2022-08-23T12:35:44.645Z,1.88
2022-08-23T12:38:41.873Z,1.23
2022-08-23T12:41:56.348Z,3.00
2022-08-23T12:44:26.199Z,2.30
2022-08-23T12:46:53.420Z,2.55
2022-08-23T12:49:27.528Z,2.72
2022-08-23T12:51:57.923Z,2.92
2022-08-23T12:54:39.312Z,1.70
2022-08-23T12:57:12.041Z,2.45
2022-08-23T12:59:48.063Z,2.13
2022-08-23T13:02:23.089Z,2.15
2022-08-23T13:04:50.773Z,0.95
2022-08-23T13:07:23.244Z,1.83
2022-08-23T13:09:53.357Z,2.85
2022-08-23T13:12:22.736Z,6.25
2022-08-23T13:14:52.381Z,0.88
2022-08-23T13:17:25.711Z,2.20
2022-08-23T13:20:23.863Z,1.75
2022-08-23T13:23:03.604Z,2.42
2022-08-23T13:25:41.943Z,3.75
2022-08-23T13:28:28.384Z,1.67
2022-08-23T13:31:10.616Z,5.10
2022-08-23T13:33:41.011Z,2.00
2022-08-23T13:36:14.881Z,3.88
2022-08-23T13:38:43.692Z,1.65
2022-08-23T13:41:26.615Z,2.63
2022-08-23T13:43:55.094Z,1.20
2022-08-23T13:46:28.515Z,1.58
2022-08-23T13:49:13.662Z,2.15
2022-08-23T13:51:43.633Z,1.30
2022-08-23T13:54:13.628Z,4.13
2022-08-23T13:56:48.741Z,0.85
2022-08-23T13:59:31.307Z,2.58
2022-08-23T14:02:09.087Z,2.40
2022-08-23T14:04:36.251Z,3.20
2022-08-23T14:07:03.535Z,3.70
2022-08-23T14:09:30.525Z,2.92
2022-08-23T14:11:59.789Z,1.23
2022-08-23T14:14:31.438Z,4.10
2022-08-23T14:17:10.685Z,3.03
2022-08-23T14:22:29.888Z,1.77
2022-08-23T14:24:56.840Z,1.40
2022-08-23T14:27:23.880Z,2.50
2022-08-23T14:29:50.871Z,4.63
2022-08-23T14:32:17.883Z,3.05
2022-08-23T14:34:44.821Z,14.07
2022-08-23T14:39:59.004Z,1.92
2022-08-23T14:42:26.079Z,3.10
2022-08-23T14:44:53.098Z,1.83
2022-08-23T14:47:20.132Z,5.63
2022-08-23T14:49:49.877Z,1.25
2022-08-23T14:52:19.503Z,0.88
2022-08-23T14:54:46.466Z,0.65
2022-08-23T14:57:13.445Z,1.75
2022-08-23T14:59:40.387Z,1.38
2022-08-23T15:02:11.828Z,2.63
2022-08-23T15:04:39.740Z,1.05
2022-08-23T15:07:17.611Z,1.48
2022-08-23T15:09:46.998Z,2.55
2022-08-23T15:17:31.504Z,4.80
2022-08-23T15:19:59.489Z,0.52
2022-08-23T15:22:26.562Z,0.63
2022-08-23T15:24:53.712Z,1.67
2022-08-23T15:27:22.958Z,0.30
2022-08-23T15:29:50.167Z,1.63
2022-08-23T15:32:22.741Z,5.47
2022-08-23T15:34:50.908Z,1.20
2022-08-23T15:37:20.216Z,2.05
2022-08-23T15:39:47.517Z,0.55
2022-08-23T15:42:20.192Z,1.15
2022-08-23T15:44:48.219Z,0.90
2022-08-23T15:47:22.535Z,2.08
2022-08-23T15:49:50.007Z,2.80
2022-08-23T15:52:17.548Z,0.88
2022-08-23T15:54:44.710Z,1.20
2022-08-23T15:57:18.342Z,1.58
2022-08-23T15:59:45.755Z,1.15
2022-08-23T16:02:12.815Z,0.60
2022-08-23T16:04:40.069Z,2.72
2022-08-23T16:07:08.516Z,0.50
2022-08-23T16:09:36.860Z,3.60
2022-08-23T16:12:05.206Z,1.50
2022-08-23T16:14:32.709Z,1.40
2022-08-23T16:17:00.467Z,2.97
2022-08-23T16:19:28.680Z,5.43
2022-08-23T16:21:56.381Z,1.00
2022-08-23T16:24:25.015Z,2.25
2022-08-23T16:26:52.381Z,1.90
2022-08-23T16:29:20.906Z,4.57
2022-08-23T16:31:48.629Z,2.63
2022-08-23T16:34:18.580Z,1.88
2022-08-23T16:36:49.610Z,2.08
2022-08-23T16:39:17.348Z,3.75
2022-08-23T16:41:44.639Z,2.03
2022-08-23T16:44:11.888Z,1.95
2022-08-23T16:46:42.772Z,2.33
2022-08-23T16:49:14.654Z,2.05
2022-08-23T16:51:42.500Z,0.80
2022-08-23T16:54:09.798Z,2.80
2022-08-23T16:56:38.770Z,1.10
2022-08-23T16:59:08.122Z,1.20
2022-08-23T17:02:11.023Z,1.85
2022-08-23T17:04:38.391Z,2.92
2022-08-23T17:07:06.533Z,2.42
2022-08-23T17:09:42.324Z,1.15
2022-08-23T17:12:09.481Z,0.83
2022-08-23T17:14:37.051Z,2.55
2022-08-23T17:17:04.334Z,4.95
2022-08-23T17:19:31.371Z,1.73
2022-08-23T17:22:01.149Z,1.35
2022-08-23T17:24:28.155Z,3.35
2022-08-23T17:26:55.243Z,1.75
2022-08-23T17:29:37.306Z,1.52
2022-08-23T17:32:05.242Z,1.15
2022-08-23T17:34:32.459Z,0.60
2022-08-23T17:37:00.032Z,3.42
2022-08-23T17:39:29.547Z,1.48
2022-08-23T17:41:58.091Z,2.50
2022-08-23T17:44:25.259Z,0.52
2022-08-23T17:46:52.705Z,1.02
2022-08-23T17:49:20.395Z,2.15
2022-08-23T17:51:48.510Z,1.05
2022-08-23T17:54:15.912Z,0.60
2022-08-23T17:56:50.346Z,2.13
2022-08-23T17:59:21.722Z,1.95
2022-08-23T18:01:48.756Z,1.00
2022-08-23T18:04:15.821Z,1.35
2022-08-23T18:06:43.154Z,1.80
2022-08-23T18:09:10.452Z,1.13
2022-08-23T18:11:37.853Z,3.03
2022-08-23T18:14:05.570Z,2.25
2022-08-23T18:16:35.587Z,0.98
2022-08-23T18:19:05.115Z,0.73
2022-08-23T18:21:33.447Z,1.25
2022-08-23T18:24:00.419Z,0.90
2022-08-23T18:26:46.411Z,1.35
2022-08-23T18:29:14.623Z,0.82
2022-08-23T18:31:43.285Z,1.48
2022-08-23T18:34:12.234Z,1.35
2022-08-23T18:36:39.539Z,0.93
2022-08-23T18:39:08.655Z,2.17
2022-08-23T18:41:36.087Z,2.00
2022-08-23T18:44:05.436Z,4.18
2022-08-23T18:46:39.187Z,3.00
2022-08-23T18:49:08.045Z,5.65
2022-08-23T18:51:35.125Z,3.58
2022-08-23T18:54:02.301Z,2.00
2022-08-23T18:56:29.289Z,1.50
2022-08-23T18:58:56.313Z,1.60
2022-08-23T19:01:36.852Z,4.13
2022-08-23T19:04:07.288Z,2.25
2022-08-23T19:06:34.617Z,1.15
2022-08-23T19:09:01.675Z,1.60
2022-08-23T19:11:30.069Z,6.50
2022-08-23T19:13:58.617Z,2.63
2022-08-23T19:16:26.981Z,2.47
2022-08-23T19:18:55.275Z,2.95
2022-08-23T19:21:25.919Z,3.83
2022-08-23T19:23:55.641Z,3.00
2022-08-23T19:26:26.390Z,2.45
2022-08-23T19:28:53.609Z,1.58
2022-08-23T19:31:20.655Z,5.70
2022-08-23T19:33:47.726Z,1.50
2022-08-23T19:36:35.784Z,4.72
2022-08-23T19:39:01.938Z,2.80
2022-08-23T19:41:29.660Z,0.90
2022-08-23T19:43:57.682Z,1.52
2022-08-23T19:46:24.657Z,1.00
2022-08-23T19:48:51.655Z,3.95
2022-08-23T19:51:20.581Z,7.05
2022-08-23T19:54:04.674Z,4.78
2022-08-23T19:56:39.354Z,4.22
2022-08-23T19:59:09.431Z,2.38
2022-08-23T20:01:36.916Z,3.65
2022-08-23T20:04:05.018Z,3.17
2022-08-23T20:06:32.361Z,7.03
2022-08-23T20:08:59.579Z,1.40
2022-08-23T20:11:28.066Z,3.47
2022-08-23T20:13:56.755Z,5.85
2022-08-23T20:16:26.958Z,1.75
2022-08-23T20:18:56.428Z,1.95
2022-08-23T20:21:24.483Z,5.60
2022-08-23T20:24:01.575Z,7.13
2022-08-23T20:26:30.669Z,3.00
2022-08-23T20:29:00.258Z,3.25
2022-08-23T20:31:35.833Z,4.65
2022-08-23T20:34:04.780Z,12.50
2022-08-23T20:36:33.778Z,5.35
2022-08-23T20:39:01.982Z,2.83
2022-08-23T20:41:32.001Z,4.65
2022-08-23T20:44:02.333Z,3.95
2022-08-23T20:46:29.802Z,2.28
2022-08-23T20:48:59.858Z,2.97
2022-08-23T20:51:28.654Z,3.92
2022-08-23T20:53:56.797Z,2.65
2022-08-23T20:56:25.285Z,2.38
2022-08-23T20:58:52.467Z,3.70
2022-08-23T21:01:19.875Z,6.50
2022-08-23T21:03:47.829Z,4.68
2022-08-23T21:06:20.090Z,3.15
2022-08-23T21:08:53.562Z,2.95
2022-08-23T21:11:22.946Z,2.75
2022-08-23T21:13:50.097Z,3.47
2022-08-23T21:16:17.644Z,4.63
2022-08-23T21:18:45.360Z,5.03
2022-08-23T21:21:12.721Z,6.53
2022-08-23T21:23:40.062Z,9.10
2022-08-23T21:26:08.223Z,2.25
2022-08-23T21:28:36.575Z,3.38
2022-08-23T21:31:09.900Z,3.17
2022-08-23T21:33:40.222Z,4.32
2022-08-23T21:36:11.360Z,5.20
2022-08-23T21:38:39.089Z,5.25
2022-08-23T21:41:11.497Z,3.20
2022-08-23T21:43:39.137Z,4.07
2022-08-23T21:46:07.519Z,4.00
2022-08-23T21:48:34.733Z,2.55
2022-08-23T21:51:02.102Z,5.45
2022-08-23T21:53:29.262Z,3.17
2022-08-23T21:55:56.624Z,3.78
2022-08-23T21:58:23.627Z,6.55
2022-08-23T22:00:51.338Z,6.88
2022-08-23T22:03:18.818Z,8.25
2022-08-23T22:05:47.066Z,4.82
2022-08-23T22:08:17.123Z,5.18
2022-08-23T22:10:57.851Z,4.72
2022-08-23T22:13:27.142Z,5.60
2022-08-23T22:15:54.885Z,4.78
2022-08-23T22:18:22.018Z,8.68
2022-08-23T22:20:49.025Z,5.57
2022-08-23T22:23:16.109Z,7.20
2022-08-23T22:25:43.172Z,7.85
2022-08-23T22:28:10.345Z,6.30
2022-08-23T22:30:37.327Z,7.00
2022-08-23T22:33:04.779Z,5.97
2022-08-23T22:35:35.344Z,5.55
2022-08-23T22:38:13.662Z,6.55
2022-08-23T22:40:48.665Z,4.65
2022-08-23T22:43:17.573Z,5.63
2022-08-23T22:45:57.012Z,10.20
2022-08-23T22:48:25.487Z,6.57
2022-08-23T22:51:06.504Z,6.88
2022-08-23T22:53:35.195Z,8.38
2022-08-23T22:56:02.693Z,6.47
2022-08-23T22:58:29.795Z,5.10
2022-08-23T23:00:58.000Z,5.82
2022-08-23T23:03:25.298Z,7.18
2022-08-23T23:05:52.725Z,5.03
2022-08-23T23:08:28.633Z,6.40
2022-08-23T23:11:00.062Z,5.25
2022-08-23T23:13:29.645Z,6.55
2022-08-23T23:15:57.807Z,8.07
2022-08-23T23:18:26.491Z,7.78
2022-08-23T23:20:58.617Z,5.55
2022-08-23T23:23:26.711Z,7.10
2022-08-23T23:25:54.349Z,8.23
2022-08-23T23:28:22.068Z,4.22
2022-08-23T23:30:51.741Z,5.72
2022-08-23T23:33:20.814Z,6.63
2022-08-23T23:35:48.885Z,4.70
2022-08-23T23:38:16.907Z,7.38
2022-08-23T23:40:44.593Z,4.97
2022-08-23T23:43:13.190Z,6.55
2022-08-23T23:45:41.052Z,5.60
2022-08-23T23:48:08.897Z,4.07
2022-08-23T23:50:37.143Z,4.63
2022-08-23T23:53:08.864Z,3.67
2022-08-23T23:55:35.951Z,7.93
2022-08-23T23:58:03.150Z,5.40
